createdAt,value
2022-08-02T00:02:09.641Z,100354.94
2022-08-02T00:07:11.312Z,100354.13
2022-08-02T00:12:12.955Z,100349.53
2022-08-02T00:17:14.549Z,100356.16
2022-08-02T00:22:16.005Z,100336.94
2022-08-02T00:27:17.469Z,100337.72
2022-08-02T00:32:18.864Z,100351.03
2022-08-02T00:37:20.222Z,100346.41
2022-08-02T00:42:21.577Z,100358.50
2022-08-02T00:47:22.893Z,100365.13
2022-08-02T00:52:24.472Z,100362.16
2022-08-02T00:57:25.873Z,100362.56
2022-08-02T01:02:27.313Z,100368.38
2022-08-02T01:07:28.669Z,100371.47
2022-08-02T01:12:30.126Z,100365.75
2022-08-02T01:17:50.841Z,100373.69
2022-08-02T01:23:02.025Z,100370.06
2022-08-02T01:28:26.349Z,100364.41
2022-08-02T01:33:35.814Z,100351.28
2022-08-02T01:38:44.665Z,100343.38
2022-08-02T01:43:47.865Z,100348.97
2022-08-02T01:48:50.518Z,100342.06
2022-08-02T01:53:52.083Z,100346.38
2022-08-02T01:58:54.462Z,100349.16
2022-08-02T02:03:56.354Z,100353.75
2022-08-02T02:09:00.103Z,100356.28
2022-08-02T02:14:02.933Z,100356.28
2022-08-02T02:19:07.053Z,100356.38
2022-08-02T02:24:11.691Z,100349.97
2022-08-02T02:29:14.771Z,100357.03
2022-08-02T02:34:23.963Z,100353.66
2022-08-02T02:39:28.468Z,100365.25
2022-08-02T02:44:32.059Z,100365.97
2022-08-02T02:49:35.781Z,100365.47
2022-08-02T02:54:38.765Z,100368.00
2022-08-02T02:59:43.055Z,100355.91
2022-08-02T03:04:56.978Z,100370.53
2022-08-02T03:09:59.901Z,100365.91
2022-08-02T03:15:05.114Z,100363.03
2022-08-02T03:20:09.552Z,100360.13
2022-08-02T03:25:12.779Z,100350.13
2022-08-02T03:30:14.978Z,100355.53
2022-08-02T03:35:23.346Z,100360.50
2022-08-02T03:40:27.536Z,100362.00
2022-08-02T03:45:30.273Z,100358.25
2022-08-02T03:50:33.812Z,100345.47
2022-08-02T03:55:36.371Z,100355.16
2022-08-02T04:00:37.930Z,100343.81
2022-08-02T04:06:04.099Z,100348.34
2022-08-02T04:11:19.581Z,100346.66
2022-08-02T04:16:24.986Z,100346.84
2022-08-02T04:21:48.544Z,100357.59
2022-08-02T04:26:50.736Z,100352.16
2022-08-02T04:31:54.031Z,100344.81
2022-08-02T04:36:55.972Z,100361.75
2022-08-02T04:41:58.027Z,100371.00
2022-08-02T04:47:06.470Z,100381.38
2022-08-02T04:52:08.563Z,100382.00
2022-08-02T04:57:28.541Z,100387.34
2022-08-02T05:02:46.850Z,100404.09
2022-08-02T05:07:56.281Z,100409.41
2022-08-02T05:12:57.935Z,100410.16
2022-08-02T05:18:00.987Z,100393.44
2022-08-02T05:23:03.471Z,100396.81
2022-08-02T05:28:08.345Z,100406.44
2022-08-02T05:33:12.821Z,100399.22
2022-08-02T05:38:14.129Z,100398.78
2022-08-02T05:43:16.339Z,100415.66
2022-08-02T05:48:17.717Z,100416.13
2022-08-02T05:53:35.372Z,100410.97
2022-08-02T05:58:47.301Z,100414.47
2022-08-02T06:03:52.598Z,100420.38
2022-08-02T06:09:03.832Z,100423.31
2022-08-02T06:14:06.937Z,100428.00
2022-08-02T06:19:08.978Z,100429.00
2022-08-02T06:24:10.768Z,100429.09
2022-08-02T06:29:12.870Z,100421.97
2022-08-02T06:34:14.195Z,100417.28
2022-08-02T06:39:31.250Z,100435.28
2022-08-02T06:44:52.989Z,100424.91
2022-08-02T06:49:55.668Z,100422.06
2022-08-02T06:55:03.173Z,100426.22
2022-08-02T07:00:09.064Z,100430.50
2022-08-02T07:05:10.638Z,100423.13
2022-08-02T07:10:13.725Z,100418.56
2022-08-02T07:15:16.294Z,100421.06
2022-08-02T07:20:17.663Z,100418.03
2022-08-02T07:25:19.313Z,100417.44
2022-08-02T07:30:20.797Z,100414.53
2022-08-02T07:35:22.409Z,100407.13
2022-08-02T07:40:24.968Z,100400.22
2022-08-02T07:45:27.271Z,100411.75
2022-08-02T07:50:28.587Z,100398.03
2022-08-02T07:55:39.330Z,100400.34
2022-08-02T08:00:43.156Z,100413.69
2022-08-02T08:05:44.530Z,100396.53
2022-08-02T08:10:46.868Z,100405.25
2022-08-02T08:15:52.045Z,100391.91
2022-08-02T08:20:53.914Z,100384.50
2022-08-02T08:25:55.869Z,100396.69
2022-08-02T08:30:57.351Z,100386.44
2022-08-02T08:35:58.714Z,100391.50
2022-08-02T08:41:04.106Z,100392.81
2022-08-02T08:46:06.544Z,100400.47
2022-08-02T08:51:13.817Z,100394.03
2022-08-02T08:56:16.846Z,100393.38
2022-08-02T09:01:18.518Z,100388.50
2022-08-02T09:06:20.555Z,100384.63
2022-08-02T09:11:26.308Z,100385.03
2022-08-02T09:16:39.133Z,100373.88
2022-08-02T09:21:40.464Z,100367.66
2022-08-02T09:26:42.391Z,100369.88
2022-08-02T09:31:49.350Z,100378.38
2022-08-02T09:36:54.295Z,100373.06
2022-08-02T09:42:11.966Z,100376.69
2022-08-02T09:47:16.443Z,100366.09
2022-08-02T09:52:23.296Z,100373.22
2022-08-02T09:57:38.987Z,100357.59
2022-08-02T10:02:40.419Z,100364.16
2022-08-02T10:07:42.022Z,100356.41
2022-08-02T10:12:43.424Z,100357.38
2022-08-02T10:17:45.189Z,100354.00
2022-08-02T10:22:47.116Z,100348.84
2022-08-02T10:28:04.861Z,100329.03
2022-08-02T10:33:08.826Z,100324.97
2022-08-02T10:38:12.334Z,100319.16
2022-08-02T10:43:36.595Z,100327.88
2022-08-02T10:49:38.086Z,100318.53
2022-08-02T10:54:41.477Z,100315.25
2022-08-02T10:59:51.540Z,100299.22
2022-08-02T11:04:55.832Z,100309.78
2022-08-02T11:09:59.223Z,100297.03
2022-08-02T11:15:07.408Z,100299.88
2022-08-02T11:20:12.297Z,100289.66
2022-08-02T11:26:02.288Z,100289.06
2022-08-02T11:31:00.902Z,100290.22
2022-08-02T11:36:05.133Z,100270.59
2022-08-02T11:41:09.956Z,100276.34
2022-08-02T11:46:14.261Z,100275.03
2022-08-02T11:51:18.040Z,100282.19
2022-08-02T11:56:27.325Z,100266.19
2022-08-02T12:01:30.809Z,100268.13
2022-08-02T12:06:34.884Z,100268.38
2022-08-02T12:11:39.106Z,100261.78
2022-08-02T12:16:59.431Z,100265.38
2022-08-02T12:22:10.065Z,100265.66
2022-08-02T12:27:28.723Z,100257.25
2022-08-02T12:32:30.561Z,100253.94
2022-08-02T12:37:32.018Z,100265.28
2022-08-02T12:42:46.640Z,100265.06
2022-08-02T12:47:51.143Z,100259.03
2022-08-02T12:53:13.704Z,100254.38
2022-08-02T12:58:15.420Z,100246.03
2022-08-02T13:04:08.961Z,100233.09
2022-08-02T13:08:41.610Z,100227.81
2022-08-02T13:13:43.596Z,100222.88
2022-08-02T13:18:46.184Z,100227.84
2022-08-02T13:23:54.240Z,100229.44
2022-08-02T13:28:55.911Z,100234.28
2022-08-02T13:33:57.164Z,100218.34
2022-08-02T13:38:58.487Z,100225.22
2022-08-02T13:44:08.912Z,100211.41
2022-08-02T13:49:15.084Z,100197.03
2022-08-02T13:54:19.393Z,100192.66
2022-08-02T13:59:53.945Z,100177.22
2022-08-02T14:04:42.071Z,100173.88
2022-08-02T14:09:43.581Z,100169.91
2022-08-02T14:14:44.926Z,100172.81
2022-08-02T14:19:46.534Z,100166.97
2022-08-02T14:24:47.766Z,100161.66
2022-08-02T14:29:51.242Z,100153.56
2022-08-02T14:34:52.700Z,100146.47
2022-08-02T14:40:00.010Z,100156.34
2022-08-02T14:45:02.314Z,100144.53
2022-08-02T14:50:04.202Z,100143.03
2022-08-02T14:55:06.192Z,100141.28
2022-08-02T15:00:08.503Z,100140.22
2022-08-02T15:05:09.903Z,100148.00
2022-08-02T15:10:11.302Z,100136.47
2022-08-02T15:15:12.648Z,100126.59
2022-08-02T15:20:25.319Z,100124.69
2022-08-02T15:25:27.497Z,100123.28
2022-08-02T15:30:28.819Z,100128.69
2022-08-02T15:35:30.186Z,100126.47
2022-08-02T15:40:31.499Z,100124.53
2022-08-02T15:45:35.060Z,100126.16
2022-08-02T15:50:36.460Z,100124.09
2022-08-02T15:55:52.003Z,100116.94
2022-08-02T16:01:00.425Z,100118.28
2022-08-02T16:06:01.920Z,100105.31
2022-08-02T16:11:03.366Z,100120.63
2022-08-02T16:16:04.960Z,100105.13
2022-08-02T16:21:06.284Z,100095.19
2022-08-02T16:26:07.771Z,100091.66
2022-08-02T16:31:11.270Z,100087.47
2022-08-02T16:36:14.259Z,100097.84
2022-08-02T16:41:16.343Z,100088.50
2022-08-02T16:46:19.036Z,100088.34
2022-08-02T16:51:20.511Z,100089.91
2022-08-02T16:56:22.454Z,100080.66
2022-08-02T17:01:27.412Z,100083.25
2022-08-02T17:06:29.202Z,100090.28
2022-08-02T17:11:30.689Z,100079.41
2022-08-02T17:16:32.732Z,100075.91
2022-08-02T17:21:34.084Z,100092.47
2022-08-02T17:26:37.161Z,100084.16
2022-08-02T17:31:44.389Z,100090.66
2022-08-02T17:36:49.683Z,100082.88
2022-08-02T17:41:51.287Z,100084.97
2022-08-02T17:46:52.662Z,100085.22
2022-08-02T17:52:49.369Z,100091.22
2022-08-02T17:57:15.798Z,100086.56
2022-08-02T18:02:17.382Z,100092.28
2022-08-02T18:07:25.037Z,100091.03
2022-08-02T18:12:27.046Z,100086.47
2022-08-02T18:17:29.336Z,100094.47
2022-08-02T18:22:30.760Z,100089.31
2022-08-02T18:27:32.253Z,100082.56
2022-08-02T18:33:55.938Z,100090.19
2022-08-02T18:37:57.408Z,100084.88
2022-08-02T18:43:03.519Z,100095.38
2022-08-02T18:48:07.456Z,100086.22
2022-08-02T18:53:09.424Z,100095.28
2022-08-02T18:58:20.213Z,100094.56
2022-08-02T19:03:22.251Z,100094.72
2022-08-02T19:08:25.405Z,100092.69
2022-08-02T19:13:27.833Z,100090.34
2022-08-02T19:18:31.917Z,100090.47
2022-08-02T19:23:34.115Z,100081.22
2022-08-02T19:28:35.567Z,100089.06
2022-08-02T19:34:05.794Z,100098.09
2022-08-02T19:38:59.661Z,100098.53
2022-08-02T19:44:25.378Z,100104.72
2022-08-02T19:49:40.172Z,100104.25
2022-08-02T19:54:54.983Z,100090.38
2022-08-02T19:59:57.467Z,100095.22
2022-08-02T20:04:59.846Z,100093.66
2022-08-02T20:10:01.739Z,100094.72
2022-08-02T20:15:07.861Z,100105.50
2022-08-02T20:20:17.264Z,100102.75
2022-08-02T20:25:19.039Z,100097.84
2022-08-02T20:30:20.479Z,100096.66
2022-08-02T20:35:26.893Z,100085.69
2022-08-02T20:40:28.790Z,100097.44
2022-08-02T20:45:30.404Z,100098.34
2022-08-02T20:50:52.167Z,100094.88
2022-08-02T20:55:55.762Z,100110.72
2022-08-02T21:00:59.797Z,100102.03
2022-08-02T21:06:01.553Z,100109.50
2022-08-02T21:11:09.544Z,100117.50
2022-08-02T21:16:18.353Z,100116.38
2022-08-02T21:21:22.822Z,100122.28
2022-08-02T21:26:25.905Z,100121.06
2022-08-02T21:31:35.916Z,100116.06
2022-08-02T21:36:38.035Z,100119.00
2022-08-02T21:41:46.441Z,100118.09
2022-08-02T21:46:55.966Z,100126.50
2022-08-02T21:51:57.522Z,100117.78
2022-08-02T21:56:58.834Z,100128.41
2022-08-02T22:02:00.213Z,100133.44
2022-08-02T22:07:01.631Z,100131.03
2022-08-02T22:12:04.702Z,100136.25
2022-08-02T22:17:13.689Z,100135.25
2022-08-02T22:22:15.407Z,100141.16
2022-08-02T22:27:16.774Z,100146.44
2022-08-02T22:32:39.954Z,100142.34
2022-08-02T22:38:17.506Z,100145.09
2022-08-02T22:43:04.157Z,100154.88
2022-08-02T22:48:06.488Z,100146.47
2022-08-02T22:53:07.923Z,100146.94
2022-08-02T22:58:09.538Z,100157.00
2022-08-02T23:03:10.864Z,100153.31
2022-08-02T23:08:12.174Z,100152.88
2022-08-02T23:13:13.504Z,100148.31
2022-08-02T23:18:33.507Z,100146.84
2022-08-02T23:23:34.825Z,100145.00
2022-08-02T23:28:36.318Z,100149.63
2022-08-02T23:34:03.941Z,100143.00
2022-08-02T23:38:59.835Z,100152.66
2022-08-02T23:44:13.548Z,100153.72
2022-08-02T23:49:16.643Z,100154.78
2022-08-02T23:54:18.257Z,100165.03
2022-08-02T23:59:19.754Z,100160.47
